createdAt,value
2019-05-01T00:00:23.651Z,100673.57
2019-05-01T00:03:06.116Z,100670.09
2019-05-01T00:05:36.376Z,100671.92
2019-05-01T00:08:06.550Z,100667.85
2019-05-01T00:10:36.424Z,100665.17
2019-05-01T00:13:07.298Z,100666.53
2019-05-01T00:15:38.103Z,100663.42
2019-05-01T00:18:06.753Z,100658.13
2019-05-01T00:20:35.353Z,100656.84
2019-05-01T00:23:04.189Z,100660.32
2019-05-01T00:25:32.734Z,100655.60
2019-05-01T00:28:01.590Z,100651.81
2019-05-01T00:30:31.903Z,100653.55
2019-05-01T00:33:00.385Z,100639.53
2019-05-01T00:35:28.890Z,100635.78
2019-05-01T00:37:57.518Z,100630.51
2019-05-01T00:40:26.100Z,100627.88
2019-05-01T00:42:54.542Z,100631.52
2019-05-01T00:45:23.179Z,100629.05
2019-05-01T00:47:51.720Z,100629.25
2019-05-01T00:50:20.224Z,100630.06
2019-05-01T00:52:48.669Z,100632.64
2019-05-01T00:55:35.216Z,100636.11
2019-05-01T00:58:20.481Z,100628.88
2019-05-01T01:01:06.679Z,100622.13
2019-05-01T01:03:35.390Z,100627.70
2019-05-01T01:06:04.182Z,100627.13
2019-05-01T01:08:33.025Z,100624.88
2019-05-01T01:11:01.476Z,100634.81
2019-05-01T01:13:29.986Z,100634.70
2019-05-01T01:15:58.481Z,100622.49
2019-05-01T01:18:27.011Z,100628.02
2019-05-01T01:20:55.502Z,100628.98
2019-05-01T01:23:25.074Z,100632.98
2019-05-01T01:25:53.786Z,100624.53
2019-05-01T01:28:22.780Z,100619.41
2019-05-01T01:30:56.684Z,100619.57
2019-05-01T01:33:21.645Z,100615.68
2019-05-01T01:35:50.112Z,100616.56
2019-05-01T01:38:18.567Z,100612.34
2019-05-01T01:40:47.160Z,100603.39
2019-05-01T01:43:33.555Z,100601.35
2019-05-01T01:46:04.060Z,100597.09
2019-05-01T01:48:32.876Z,100594.97
2019-05-01T01:51:01.451Z,100586.45
2019-05-01T01:53:30.233Z,100584.00
2019-05-01T01:55:58.753Z,100581.02
2019-05-01T01:58:27.647Z,100578.52
2019-05-01T02:01:10.008Z,100576.36
2019-05-01T02:03:46.437Z,100577.81
2019-05-01T02:06:14.917Z,100577.89
2019-05-01T02:08:55.739Z,100571.00
2019-05-01T02:11:13.772Z,100569.78
2019-05-01T02:13:42.827Z,100569.47
2019-05-01T02:16:11.488Z,100566.14
2019-05-01T02:18:40.018Z,100565.77
2019-05-01T02:21:08.464Z,100564.47
2019-05-01T02:23:36.906Z,100561.60
2019-05-01T02:26:06.516Z,100560.72
2019-05-01T02:28:36.622Z,100561.65
2019-05-01T02:31:28.112Z,100556.59
2019-05-01T02:33:54.717Z,100557.83
2019-05-01T02:36:25.553Z,100554.94
2019-05-01T02:38:55.730Z,100556.66
2019-05-01T02:41:27.270Z,100547.28
2019-05-01T02:43:58.798Z,100547.72
2019-05-01T02:46:29.016Z,100542.17
2019-05-01T02:49:12.612Z,100539.27
2019-05-01T02:51:43.751Z,100546.06
2019-05-01T02:54:14.428Z,100551.22
2019-05-01T02:56:48.683Z,100545.56
2019-05-01T02:59:18.741Z,100541.77
2019-05-01T03:01:48.196Z,100543.50
2019-05-01T03:04:16.995Z,100544.78
2019-05-01T03:06:47.283Z,100546.95
2019-05-01T03:09:17.162Z,100541.05
2019-05-01T03:11:48.615Z,100542.66
2019-05-01T03:14:20.142Z,100545.63
2019-05-01T03:16:51.797Z,100544.40
2019-05-01T03:19:36.023Z,100534.73
2019-05-01T03:22:15.647Z,100536.73
2019-05-01T03:24:44.263Z,100532.84
2019-05-01T03:27:13.239Z,100530.74
2019-05-01T03:29:42.182Z,100535.95
2019-05-01T03:32:18.302Z,100534.73
2019-05-01T03:34:41.028Z,100537.34
2019-05-01T03:37:10.347Z,100536.52
2019-05-01T03:39:38.936Z,100536.95
2019-05-01T03:42:07.547Z,100537.84
2019-05-01T03:44:36.007Z,100535.72
2019-05-01T03:47:04.600Z,100533.61
2019-05-01T03:49:33.478Z,100536.91
2019-05-01T03:52:02.332Z,100533.95
2019-05-01T03:54:30.882Z,100534.40
2019-05-01T03:56:59.495Z,100535.69
2019-05-01T03:59:28.055Z,100530.22
2019-05-01T04:02:07.074Z,100534.00
2019-05-01T04:04:35.765Z,100528.41
2019-05-01T04:07:04.382Z,100535.73
2019-05-01T04:09:32.962Z,100531.45
2019-05-01T04:12:02.814Z,100536.95
2019-05-01T04:14:31.318Z,100533.02
2019-05-01T04:17:01.934Z,100535.19
2019-05-01T04:19:30.676Z,100540.34
2019-05-01T04:22:03.580Z,100538.23
2019-05-01T04:24:33.110Z,100541.66
2019-05-01T04:27:03.363Z,100539.16
2019-05-01T04:29:49.896Z,100538.38
2019-05-01T04:32:22.879Z,100538.82
2019-05-01T04:34:56.566Z,100540.01
2019-05-01T04:37:26.262Z,100535.45
2019-05-01T04:39:55.574Z,100533.32
2019-05-01T04:42:24.519Z,100530.28
2019-05-01T04:44:53.895Z,100527.77
2019-05-01T04:47:23.022Z,100532.40
2019-05-01T04:49:51.635Z,100530.28
2019-05-01T04:52:20.548Z,100529.78
2019-05-01T04:54:49.132Z,100535.78
2019-05-01T04:57:18.028Z,100535.72
2019-05-01T04:59:46.723Z,100541.61
2019-05-01T05:02:16.853Z,100548.83
2019-05-01T05:04:45.350Z,100541.56
2019-05-01T05:07:13.928Z,100541.52
2019-05-01T05:09:43.407Z,100546.28
2019-05-01T05:12:17.108Z,100543.78
2019-05-01T05:14:53.177Z,100548.84
2019-05-01T05:17:26.106Z,100546.00
2019-05-01T05:19:54.923Z,100543.04
2019-05-01T05:22:24.872Z,100543.97
2019-05-01T05:24:54.754Z,100545.34
2019-05-01T05:27:25.053Z,100542.25
2019-05-01T05:29:56.555Z,100545.70
2019-05-01T05:32:27.275Z,100550.06
2019-05-01T05:34:58.773Z,100553.40
2019-05-01T05:37:31.470Z,100557.62
2019-05-01T05:40:01.900Z,100552.43
2019-05-01T05:42:31.296Z,100553.75
2019-05-01T05:44:59.907Z,100555.77
2019-05-01T05:47:29.477Z,100556.65
2019-05-01T05:49:58.750Z,100564.30
2019-05-01T05:52:34.125Z,100562.98
2019-05-01T05:55:21.097Z,100558.22
2019-05-01T05:57:56.209Z,100559.04
2019-05-01T06:00:37.334Z,100558.60
2019-05-01T06:03:31.354Z,100555.44
2019-05-01T06:06:04.070Z,100555.72
2019-05-01T06:08:35.616Z,100559.55
2019-05-01T06:11:15.451Z,100559.05
2019-05-01T06:14:01.545Z,100555.54
2019-05-01T06:16:46.864Z,100556.54
2019-05-01T06:19:34.385Z,100554.31
2019-05-01T06:22:10.105Z,100558.52
2019-05-01T06:24:43.018Z,100566.19
2019-05-01T06:27:13.875Z,100561.86
2019-05-01T06:29:44.192Z,100561.46
2019-05-01T06:32:13.001Z,100571.50
2019-05-01T06:34:41.888Z,100563.11
2019-05-01T06:37:10.476Z,100564.33
2019-05-01T06:39:42.921Z,100561.34
2019-05-01T06:42:15.239Z,100560.98
2019-05-01T06:44:44.508Z,100564.27
2019-05-01T06:47:25.244Z,100560.36
2019-05-01T06:49:56.190Z,100558.08
2019-05-01T06:52:29.342Z,100561.16
2019-05-01T06:54:57.221Z,100569.06
2019-05-01T06:57:28.578Z,100566.05
2019-05-01T07:00:03.321Z,100563.14
2019-05-01T07:02:34.960Z,100561.50
2019-05-01T07:05:02.437Z,100565.67
2019-05-01T07:07:32.642Z,100565.13
2019-05-01T07:10:02.350Z,100562.84
2019-05-01T07:12:32.824Z,100554.67
2019-05-01T07:15:02.435Z,100556.65
2019-05-01T07:17:30.990Z,100558.28
2019-05-01T07:20:04.829Z,100564.22
2019-05-01T07:22:37.076Z,100561.16
2019-05-01T07:25:05.299Z,100561.53
2019-05-01T07:27:34.506Z,100557.91
2019-05-01T07:30:05.046Z,100562.08
2019-05-01T07:32:36.444Z,100565.02
2019-05-01T07:35:04.571Z,100566.07
2019-05-01T07:37:33.416Z,100561.01
2019-05-01T07:40:02.098Z,100566.75
2019-05-01T07:42:38.289Z,100563.62
2019-05-01T07:45:26.663Z,100566.59
2019-05-01T07:48:01.020Z,100564.62
2019-05-01T07:50:31.732Z,100556.05
2019-05-01T07:52:59.828Z,100551.78
2019-05-01T07:55:37.324Z,100553.49
2019-05-01T07:58:10.457Z,100549.98
2019-05-01T08:01:08.326Z,100542.03
2019-05-01T08:03:37.972Z,100541.19
2019-05-01T08:06:07.644Z,100546.38
2019-05-01T08:08:40.069Z,100550.80
2019-05-01T08:11:10.385Z,100554.38
2019-05-01T08:13:39.631Z,100552.25
2019-05-01T08:16:08.839Z,100549.34
2019-05-01T08:18:39.179Z,100556.29
2019-05-01T08:21:21.060Z,100554.05
2019-05-01T08:23:48.528Z,100552.25
2019-05-01T08:26:16.952Z,100552.37
2019-05-01T08:28:56.453Z,100547.66
2019-05-01T08:31:42.663Z,100548.66
2019-05-01T08:34:12.870Z,100549.91
2019-05-01T08:36:42.643Z,100550.36
2019-05-01T08:39:13.876Z,100556.94
2019-05-01T08:41:41.793Z,100554.12
2019-05-01T08:44:10.290Z,100544.91
2019-05-01T08:46:52.693Z,100554.45
2019-05-01T08:49:22.856Z,100552.15
2019-05-01T08:51:51.513Z,100546.56
2019-05-01T08:54:19.975Z,100541.41
2019-05-01T08:56:48.511Z,100541.39
2019-05-01T08:59:19.421Z,100541.16
2019-05-01T09:01:50.638Z,100535.09
2019-05-01T09:04:18.877Z,100532.91
2019-05-01T09:06:47.598Z,100532.70
2019-05-01T09:09:16.076Z,100524.31
2019-05-01T09:11:44.506Z,100523.69
2019-05-01T09:14:13.018Z,100527.82
2019-05-01T09:16:41.480Z,100521.13
2019-05-01T09:19:09.904Z,100521.19
2019-05-01T09:21:39.489Z,100515.88
2019-05-01T09:24:08.126Z,100515.39
2019-05-01T09:26:38.611Z,100512.48
2019-05-01T09:29:11.147Z,100505.95
2019-05-01T09:31:39.171Z,100513.83
2019-05-01T09:34:09.456Z,100519.69
2019-05-01T09:36:38.046Z,100516.71
2019-05-01T09:39:06.953Z,100509.62
2019-05-01T09:41:38.582Z,100513.52
2019-05-01T09:44:10.541Z,100497.53
2019-05-01T09:46:36.011Z,100509.31
2019-05-01T09:49:05.286Z,100507.13
2019-05-01T09:51:42.521Z,100498.95
2019-05-01T09:54:19.201Z,100500.34
2019-05-01T09:56:47.733Z,100497.91
2019-05-01T09:59:17.389Z,100490.59
2019-05-01T10:01:46.438Z,100504.27
2019-05-01T10:04:14.876Z,100488.52
2019-05-01T10:06:43.304Z,100492.05
2019-05-01T10:09:16.338Z,100487.23
2019-05-01T10:11:42.103Z,100481.78
2019-05-01T10:14:10.542Z,100484.22
2019-05-01T10:16:38.974Z,100491.71
2019-05-01T10:19:07.439Z,100487.78
2019-05-01T10:21:35.867Z,100485.69
2019-05-01T10:24:04.684Z,100480.22
2019-05-01T10:26:34.803Z,100466.09
2019-05-01T10:29:21.412Z,100475.47
2019-05-01T10:31:55.878Z,100461.81
2019-05-01T10:34:28.634Z,100467.67
2019-05-01T10:36:57.094Z,100469.12
2019-05-01T10:39:25.619Z,100463.14
2019-05-01T10:41:54.130Z,100465.89
2019-05-01T10:44:22.580Z,100467.41
2019-05-01T10:46:51.021Z,100459.18
2019-05-01T10:49:19.500Z,100449.77
2019-05-01T10:51:47.950Z,100448.58
2019-05-01T10:54:16.412Z,100450.94
2019-05-01T10:56:44.867Z,100454.69
2019-05-01T10:59:13.291Z,100451.22
2019-05-01T11:01:49.219Z,100457.39
2019-05-01T11:04:17.685Z,100450.45
2019-05-01T11:06:46.152Z,100449.05
2019-05-01T11:09:14.607Z,100452.56
2019-05-01T11:11:43.036Z,100452.94
2019-05-01T11:14:11.490Z,100441.53
2019-05-01T11:16:40.029Z,100428.90
2019-05-01T11:19:08.477Z,100438.98
2019-05-01T11:21:36.932Z,100432.60
2019-05-01T11:24:05.541Z,100434.84
2019-05-01T11:26:33.967Z,100428.91
2019-05-01T11:29:02.429Z,100431.56
2019-05-01T11:31:48.775Z,100421.27
2019-05-01T11:34:34.648Z,100416.23
2019-05-01T11:37:22.963Z,100423.11
2019-05-01T11:40:05.017Z,100420.64
2019-05-01T11:42:33.502Z,100409.14
2019-05-01T11:45:01.950Z,100414.94
2019-05-01T11:47:30.446Z,100404.23
2019-05-01T11:49:58.930Z,100396.09
2019-05-01T11:52:28.024Z,100400.81
2019-05-01T11:54:56.505Z,100402.94
2019-05-01T11:57:24.901Z,100401.70
2019-05-01T11:59:53.423Z,100402.94
2019-05-01T12:02:21.874Z,100402.02
2019-05-01T12:04:50.330Z,100397.75
2019-05-01T12:07:18.943Z,100401.77
2019-05-01T12:09:47.393Z,100400.69
2019-05-01T12:12:20.150Z,100382.77
2019-05-01T12:14:48.743Z,100388.61
2019-05-01T12:17:24.588Z,100384.75
2019-05-01T12:19:53.123Z,100384.38
2019-05-01T12:22:21.611Z,100382.58
2019-05-01T12:24:50.061Z,100383.44
2019-05-01T12:27:18.536Z,100378.50
2019-05-01T12:29:46.998Z,100378.45
2019-05-01T12:32:15.500Z,100369.63
2019-05-01T12:34:43.930Z,100368.17
2019-05-01T12:37:28.975Z,100364.11
2019-05-01T12:39:57.460Z,100365.13
2019-05-01T12:42:27.577Z,100359.81
2019-05-01T12:44:57.009Z,100363.55
2019-05-01T12:47:32.816Z,100361.12
2019-05-01T12:50:01.300Z,100356.88
2019-05-01T12:52:37.499Z,100348.04
2019-05-01T12:55:08.689Z,100352.20
2019-05-01T12:57:37.106Z,100343.89
2019-05-01T13:00:09.429Z,100341.63
2019-05-01T13:02:38.076Z,100340.09
2019-05-01T13:05:07.353Z,100340.56
2019-05-01T13:07:35.911Z,100339.11
2019-05-01T13:10:05.961Z,100339.88
2019-05-01T13:12:34.409Z,100328.69
2019-05-01T13:15:02.839Z,100326.91
2019-05-01T13:17:31.291Z,100320.31
2019-05-01T13:19:59.827Z,100331.48
2019-05-01T13:22:29.274Z,100322.09
2019-05-01T13:24:58.059Z,100314.26
2019-05-01T13:27:40.223Z,100317.38
2019-05-01T13:30:16.026Z,100315.63
2019-05-01T13:32:46.277Z,100320.19
2019-05-01T13:35:14.890Z,100319.16
2019-05-01T13:37:44.954Z,100308.52
2019-05-01T13:40:14.874Z,100303.20
2019-05-01T13:42:43.425Z,100309.09
2019-05-01T13:45:13.313Z,100302.63
2019-05-01T13:47:41.763Z,100304.38
2019-05-01T13:50:11.071Z,100290.66
2019-05-01T13:52:39.711Z,100292.34
2019-05-01T13:55:09.286Z,100288.86
2019-05-01T13:57:37.762Z,100281.85
2019-05-01T14:00:10.127Z,100282.84
2019-05-01T14:02:38.628Z,100282.84
2019-05-01T14:05:09.135Z,100282.22
2019-05-01T14:07:37.574Z,100279.62
2019-05-01T14:10:06.729Z,100267.33
2019-05-01T14:12:35.205Z,100256.92
2019-05-01T14:15:04.067Z,100261.70
2019-05-01T14:17:32.524Z,100259.19
2019-05-01T14:20:18.737Z,100267.41
2019-05-01T14:22:48.897Z,100268.48
2019-05-01T14:25:17.317Z,100258.13
2019-05-01T14:27:46.109Z,100258.34
2019-05-01T14:30:14.688Z,100255.30
2019-05-01T14:32:43.113Z,100249.86
2019-05-01T14:35:12.606Z,100251.69
2019-05-01T14:37:41.067Z,100244.69
2019-05-01T14:40:10.121Z,100241.44
2019-05-01T14:42:38.988Z,100244.56
2019-05-01T14:45:09.664Z,100235.73
2019-05-01T14:47:38.224Z,100236.33
2019-05-01T14:50:07.876Z,100234.73
2019-05-01T14:52:36.358Z,100223.45
2019-05-01T14:55:07.163Z,100232.44
2019-05-01T14:57:35.603Z,100226.75
2019-05-01T15:00:06.378Z,100223.70
2019-05-01T15:02:34.831Z,100231.17
2019-05-01T15:05:04.077Z,100225.00
2019-05-01T15:07:42.713Z,100227.75
2019-05-01T15:10:02.836Z,100226.06
2019-05-01T15:12:31.346Z,100225.39
2019-05-01T15:15:01.382Z,100215.08
2019-05-01T15:17:31.454Z,100214.55
2019-05-01T15:20:04.382Z,100220.05
2019-05-01T15:22:32.878Z,100220.73
2019-05-01T15:25:01.318Z,100210.22
2019-05-01T15:27:29.804Z,100216.39
2019-05-01T15:29:58.214Z,100211.88
2019-05-01T15:32:26.663Z,100208.69
2019-05-01T15:34:55.145Z,100206.70
2019-05-01T15:37:23.639Z,100198.80
2019-05-01T15:39:56.382Z,100205.63
2019-05-01T15:42:32.218Z,100205.58
2019-05-01T15:45:01.060Z,100202.69
2019-05-01T15:47:29.560Z,100199.63
2019-05-01T15:49:58.003Z,100198.20
2019-05-01T15:52:26.474Z,100195.92
2019-05-01T15:54:54.930Z,100196.28
2019-05-01T15:57:23.378Z,100196.05
2019-05-01T15:59:51.857Z,100190.28
2019-05-01T16:02:20.354Z,100188.98
2019-05-01T16:04:48.832Z,100195.45
2019-05-01T16:07:17.259Z,100196.81
2019-05-01T16:09:45.692Z,100192.87
2019-05-01T16:12:18.260Z,100183.65
2019-05-01T16:14:46.769Z,100183.88
2019-05-01T16:17:15.278Z,100182.45
2019-05-01T16:19:44.139Z,100183.58
2019-05-01T16:22:12.842Z,100179.93
2019-05-01T16:24:41.348Z,100175.89
2019-05-01T16:27:09.987Z,100179.93
2019-05-01T16:29:38.388Z,100176.58
2019-05-01T16:32:06.892Z,100166.83
2019-05-01T16:34:35.385Z,100171.11
2019-05-01T16:37:03.902Z,100169.66
2019-05-01T16:39:50.006Z,100166.47
2019-05-01T16:42:19.124Z,100165.30
2019-05-01T16:44:47.566Z,100160.30
2019-05-01T16:47:16.106Z,100157.94
2019-05-01T16:49:44.639Z,100155.59
2019-05-01T16:52:13.180Z,100153.96
2019-05-01T16:54:42.630Z,100145.53
2019-05-01T16:57:12.778Z,100140.12
2019-05-01T16:59:41.242Z,100134.25
2019-05-01T17:02:28.410Z,100144.75
2019-05-01T17:05:01.238Z,100137.06
2019-05-01T17:07:40.556Z,100141.89
2019-05-01T17:10:13.564Z,100131.31
2019-05-01T17:12:43.698Z,100132.97
2019-05-01T17:15:12.454Z,100129.92
2019-05-01T17:17:41.030Z,100131.72
2019-05-01T17:20:10.081Z,100133.86
2019-05-01T17:22:39.739Z,100127.39
2019-05-01T17:25:09.487Z,100129.09
2019-05-01T17:27:38.002Z,100138.53
2019-05-01T17:30:20.698Z,100127.55
2019-05-01T17:32:49.225Z,100130.30
2019-05-01T17:35:17.657Z,100123.38
2019-05-01T17:37:46.417Z,100120.83
2019-05-01T17:40:15.418Z,100118.34
2019-05-01T17:42:43.861Z,100122.33
2019-05-01T17:45:12.467Z,100116.86
2019-05-01T17:47:41.223Z,100115.38
2019-05-01T17:50:10.011Z,100120.12
2019-05-01T17:52:38.592Z,100113.81
2019-05-01T17:55:08.133Z,100110.41
2019-05-01T17:57:36.809Z,100119.20
2019-05-01T18:00:19.707Z,100120.91
2019-05-01T18:02:49.838Z,100119.23
2019-05-01T18:05:26.159Z,100115.80
2019-05-01T18:07:54.594Z,100119.33
2019-05-01T18:10:23.046Z,100122.31
2019-05-01T18:12:52.146Z,100118.19
2019-05-01T18:15:20.700Z,100126.08
2019-05-01T18:17:49.287Z,100116.90
2019-05-01T18:20:17.977Z,100116.58
2019-05-01T18:22:56.922Z,100117.81
2019-05-01T18:25:34.777Z,100117.95
2019-05-01T18:28:13.393Z,100123.73
2019-05-01T18:30:43.464Z,100126.56
2019-05-01T18:33:11.968Z,100127.59
2019-05-01T18:35:40.445Z,100123.60
2019-05-01T18:38:19.097Z,100122.70
2019-05-01T18:40:49.312Z,100121.52
2019-05-01T18:43:17.725Z,100122.94
2019-05-01T18:45:48.815Z,100122.35
2019-05-01T18:48:17.933Z,100124.41
2019-05-01T18:50:53.908Z,100121.83
2019-05-01T18:53:16.736Z,100117.65
2019-05-01T18:55:45.220Z,100122.52
2019-05-01T18:58:13.797Z,100122.95
2019-05-01T19:00:42.797Z,100127.97
2019-05-01T19:03:11.304Z,100119.77
2019-05-01T19:05:43.137Z,100125.30
2019-05-01T19:08:10.187Z,100123.03
2019-05-01T19:10:38.688Z,100126.11
2019-05-01T19:13:07.264Z,100125.64
2019-05-01T19:15:35.881Z,100125.36
2019-05-01T19:18:05.000Z,100123.09
2019-05-01T19:20:33.797Z,100122.02
2019-05-01T19:23:02.271Z,100119.33
2019-05-01T19:25:30.818Z,100117.21
2019-05-01T19:28:00.096Z,100118.02
2019-05-01T19:30:28.664Z,100118.14
2019-05-01T19:32:57.145Z,100114.13
2019-05-01T19:35:28.986Z,100111.47
2019-05-01T19:38:04.495Z,100112.34
2019-05-01T19:40:33.337Z,100111.42
2019-05-01T19:43:01.871Z,100105.86
2019-05-01T19:45:30.987Z,100105.15
2019-05-01T19:47:59.469Z,100108.22
2019-05-01T19:50:27.970Z,100108.47
2019-05-01T19:52:56.800Z,100102.00
2019-05-01T19:55:29.721Z,100100.08
2019-05-01T19:57:58.250Z,100099.98
2019-05-01T20:00:41.613Z,100101.37
2019-05-01T20:03:10.131Z,100100.52
2019-05-01T20:05:41.622Z,100096.52
2019-05-01T20:08:09.838Z,100103.01
2019-05-01T20:10:38.272Z,100105.77
2019-05-01T20:13:12.081Z,100107.84
2019-05-01T20:15:37.736Z,100109.35
2019-05-01T20:18:06.320Z,100111.31
2019-05-01T20:20:35.281Z,100118.17
2019-05-01T20:23:04.035Z,100112.36
2019-05-01T20:25:32.823Z,100109.86
2019-05-01T20:28:01.278Z,100112.71
2019-05-01T20:30:29.699Z,100111.95
2019-05-01T20:33:02.170Z,100107.12
2019-05-01T20:35:30.213Z,100112.48
2019-05-01T20:37:59.185Z,100113.97
2019-05-01T20:40:27.672Z,100108.21
2019-05-01T20:42:56.128Z,100107.97
2019-05-01T20:45:24.737Z,100108.10
2019-05-01T20:47:54.380Z,100102.16
2019-05-01T20:50:23.160Z,100100.23
2019-05-01T20:52:52.146Z,100102.48
2019-05-01T20:55:20.654Z,100103.04
2019-05-01T20:57:50.314Z,100097.43
2019-05-01T21:00:21.987Z,100098.84
2019-05-01T21:02:51.112Z,100100.28
2019-05-01T21:05:30.456Z,100100.56
2019-05-01T21:08:09.384Z,100099.31
2019-05-01T21:10:50.462Z,100102.90
2019-05-01T21:13:17.737Z,100098.41
2019-05-01T21:15:47.257Z,100104.46
2019-05-01T21:18:16.097Z,100108.42
2019-05-01T21:20:44.524Z,100107.14
2019-05-01T21:23:14.355Z,100107.17
2019-05-01T21:25:43.897Z,100103.98
2019-05-01T21:28:14.211Z,100111.47
2019-05-01T21:30:43.896Z,100105.45
2019-05-01T21:33:19.610Z,100104.07
2019-05-01T21:35:48.027Z,100100.03
2019-05-01T21:38:16.471Z,100100.57
2019-05-01T21:40:44.918Z,100099.62
2019-05-01T21:43:13.663Z,100095.47
2019-05-01T21:45:43.343Z,100095.16
2019-05-01T21:48:13.360Z,100091.38
2019-05-01T21:50:43.919Z,100089.97
2019-05-01T21:53:12.976Z,100092.08
2019-05-01T21:55:41.685Z,100082.34
2019-05-01T21:58:10.128Z,100086.78
2019-05-01T22:00:40.502Z,100083.42
2019-05-01T22:03:09.621Z,100083.00
2019-05-01T22:05:39.655Z,100082.16
2019-05-01T22:08:08.437Z,100077.70
2019-05-01T22:10:36.846Z,100081.37
2019-05-01T22:13:05.896Z,100076.43
2019-05-01T22:15:41.959Z,100072.80
2019-05-01T22:18:13.329Z,100073.70
2019-05-01T22:20:49.105Z,100076.01
2019-05-01T22:23:22.101Z,100076.09
2019-05-01T22:26:58.484Z,100073.67
2019-05-01T22:29:32.331Z,100074.85
2019-05-01T22:32:12.370Z,100072.78
2019-05-01T22:34:42.448Z,100067.19
2019-05-01T22:37:10.889Z,100070.30
2019-05-01T22:39:40.985Z,100065.51
2019-05-01T22:42:09.406Z,100061.75
2019-05-01T22:44:37.878Z,100062.77
2019-05-01T22:47:10.284Z,100057.84
2019-05-01T22:49:36.550Z,100062.95
2019-05-01T22:52:05.638Z,100057.21
2019-05-01T22:54:34.065Z,100060.23
2019-05-01T22:57:02.533Z,100055.94
2019-05-01T22:59:30.967Z,100058.77
2019-05-01T23:02:06.554Z,100055.02
2019-05-01T23:04:35.008Z,100052.48
2019-05-01T23:07:03.500Z,100049.17
2019-05-01T23:09:32.887Z,100049.66
2019-05-01T23:12:01.352Z,100046.77
2019-05-01T23:14:30.620Z,100041.67
2019-05-01T23:17:18.887Z,100038.79
2019-05-01T23:19:47.339Z,100037.50
2019-05-01T23:22:15.834Z,100037.69
2019-05-01T23:24:44.294Z,100037.42
2019-05-01T23:27:12.715Z,100034.84
2019-05-01T23:29:41.145Z,100033.61
2019-05-01T23:32:10.289Z,100032.34
2019-05-01T23:34:38.764Z,100023.84
2019-05-01T23:37:07.149Z,100024.00
2019-05-01T23:39:40.503Z,100020.03
2019-05-01T23:42:05.805Z,100019.14
2019-05-01T23:44:38.101Z,100020.09
2019-05-01T23:47:04.447Z,100012.53
2019-05-01T23:49:32.860Z,100007.89
2019-05-01T23:52:03.468Z,100006.92
2019-05-01T23:54:31.481Z,99995.15
2019-05-01T23:56:59.938Z,99989.68
2019-05-01T23:59:28.379Z,99988.86
